createdAt,value
2019-04-30T00:01:38.765Z,7.57
2019-04-30T00:04:12.376Z,7.60
2019-04-30T00:06:41.488Z,7.47
2019-04-30T00:09:17.083Z,8.17
2019-04-30T00:11:42.869Z,7.13
2019-04-30T00:14:11.998Z,8.30
2019-04-30T00:16:41.145Z,7.73
2019-04-30T00:19:10.743Z,8.37
2019-04-30T00:21:41.161Z,8.10
2019-04-30T00:24:10.469Z,8.03
2019-04-30T00:26:40.002Z,8.50
2019-04-30T00:29:10.428Z,8.73
2019-04-30T00:31:39.539Z,8.37
2019-04-30T00:34:08.617Z,9.47
2019-04-30T00:36:37.733Z,8.80
2019-04-30T00:39:13.070Z,9.10
2019-04-30T00:41:39.835Z,9.33
2019-04-30T00:44:08.909Z,9.47
2019-04-30T00:46:38.008Z,9.37
2019-04-30T00:49:09.970Z,9.60
2019-04-30T00:51:38.091Z,10.10
2019-04-30T00:54:07.328Z,10.13
2019-04-30T00:56:36.416Z,10.27
2019-04-30T00:59:07.185Z,10.80
2019-04-30T01:02:27.359Z,11.07
2019-04-30T01:04:51.926Z,11.00
2019-04-30T01:07:21.196Z,10.67
2019-04-30T01:09:50.237Z,10.50
2019-04-30T01:12:27.675Z,9.63
2019-04-30T01:14:50.416Z,10.70
2019-04-30T01:17:19.531Z,10.97
2019-04-30T01:19:51.151Z,9.97
2019-04-30T01:22:27.715Z,10.40
2019-04-30T01:24:50.631Z,11.50
2019-04-30T01:27:20.185Z,11.03
2019-04-30T01:29:49.282Z,10.73
2019-04-30T01:32:21.007Z,12.00
2019-04-30T01:34:53.763Z,11.33
2019-04-30T01:37:24.671Z,10.83
2019-04-30T01:39:51.017Z,11.43
2019-04-30T01:42:20.113Z,11.60
2019-04-30T01:44:53.643Z,12.10
2019-04-30T01:47:21.439Z,12.30
2019-04-30T01:49:50.918Z,13.87
2019-04-30T01:52:20.178Z,13.83
2019-04-30T01:54:49.298Z,14.03
2019-04-30T01:57:29.409Z,12.47
2019-04-30T02:00:19.584Z,12.40
2019-04-30T02:02:49.516Z,13.03
2019-04-30T02:05:18.970Z,12.80
2019-04-30T02:07:48.667Z,12.30
2019-04-30T02:10:18.657Z,11.43
2019-04-30T02:12:49.327Z,11.80
2019-04-30T02:15:19.239Z,11.70
2019-04-30T02:17:50.250Z,11.87
2019-04-30T02:20:19.384Z,11.90
2019-04-30T02:22:48.692Z,11.17
2019-04-30T02:25:19.539Z,12.20
2019-04-30T02:27:49.027Z,12.67
2019-04-30T02:30:20.876Z,12.90
2019-04-30T02:32:49.631Z,13.00
2019-04-30T02:35:40.465Z,12.50
2019-04-30T02:38:15.709Z,12.53
2019-04-30T02:41:01.179Z,12.47
2019-04-30T02:43:32.397Z,14.40
2019-04-30T02:46:03.568Z,14.80
2019-04-30T02:48:33.773Z,14.03
2019-04-30T02:51:06.478Z,14.23
2019-04-30T02:54:06.499Z,14.23
2019-04-30T02:56:35.601Z,15.20
2019-04-30T02:59:23.821Z,14.97
2019-04-30T03:01:52.923Z,15.07
2019-04-30T03:04:22.114Z,16.10
2019-04-30T03:06:51.321Z,16.27
2019-04-30T03:09:20.553Z,15.77
2019-04-30T03:11:50.208Z,16.17
2019-04-30T03:14:20.069Z,16.60
2019-04-30T03:17:14.431Z,15.27
2019-04-30T03:19:51.957Z,15.57
2019-04-30T03:22:23.978Z,15.63
2019-04-30T03:24:53.139Z,16.43
2019-04-30T03:27:24.791Z,17.70
2019-04-30T03:29:53.051Z,15.40
2019-04-30T03:32:23.189Z,15.30
2019-04-30T03:34:52.602Z,16.43
2019-04-30T03:37:21.811Z,15.23
2019-04-30T03:39:50.920Z,16.30
2019-04-30T03:42:20.110Z,15.90
2019-04-30T03:44:49.749Z,16.17
2019-04-30T03:47:20.222Z,15.17
2019-04-30T03:49:50.061Z,16.33
2019-04-30T03:52:19.851Z,15.13
2019-04-30T03:54:49.571Z,15.77
2019-04-30T03:57:20.406Z,17.67
2019-04-30T03:59:50.077Z,17.70
2019-04-30T04:02:32.857Z,17.13
2019-04-30T04:05:14.623Z,16.87
2019-04-30T04:07:52.513Z,16.40
2019-04-30T04:10:32.598Z,16.93
2019-04-30T04:13:01.740Z,17.43
2019-04-30T04:15:30.879Z,16.43
2019-04-30T04:18:00.512Z,17.57
2019-04-30T04:20:29.994Z,16.53
2019-04-30T04:22:59.829Z,16.27
2019-04-30T04:25:29.911Z,16.27
2019-04-30T04:28:00.463Z,16.77
2019-04-30T04:30:32.028Z,16.27
2019-04-30T04:33:01.261Z,15.17
2019-04-30T04:35:30.354Z,15.43
2019-04-30T04:38:00.339Z,17.10
2019-04-30T04:40:30.420Z,16.73
2019-04-30T04:43:00.296Z,15.60
2019-04-30T04:45:30.520Z,13.97
2019-04-30T04:48:00.322Z,14.73
2019-04-30T04:50:30.197Z,14.43
2019-04-30T04:52:59.641Z,14.30
2019-04-30T04:55:30.858Z,13.93
2019-04-30T04:58:00.164Z,13.23
2019-04-30T05:00:29.546Z,14.17
2019-04-30T05:03:25.265Z,13.50
2019-04-30T05:05:54.403Z,14.67
2019-04-30T05:08:23.524Z,13.87
2019-04-30T05:10:52.640Z,13.57
2019-04-30T05:13:21.858Z,13.13
2019-04-30T05:15:53.082Z,13.90
2019-04-30T05:18:22.797Z,13.20
2019-04-30T05:20:52.061Z,13.33
2019-04-30T05:23:21.923Z,13.60
2019-04-30T05:25:51.339Z,12.67
2019-04-30T05:28:20.447Z,12.43
2019-04-30T05:30:49.636Z,13.23
2019-04-30T05:33:18.819Z,12.67
2019-04-30T05:35:49.608Z,12.93
2019-04-30T05:38:19.021Z,12.20
2019-04-30T05:40:49.595Z,12.63
2019-04-30T05:43:19.226Z,13.00
2019-04-30T05:45:49.237Z,12.90
2019-04-30T05:48:18.652Z,12.63
2019-04-30T05:50:51.498Z,12.53
2019-04-30T05:53:19.092Z,13.07
2019-04-30T05:55:49.348Z,12.70
2019-04-30T05:58:19.733Z,12.30
2019-04-30T06:00:49.942Z,13.27
2019-04-30T06:03:27.529Z,14.07
2019-04-30T06:05:50.289Z,13.47
2019-04-30T06:08:21.130Z,14.10
2019-04-30T06:10:59.741Z,13.60
2019-04-30T06:13:38.400Z,13.93
2019-04-30T06:16:12.212Z,12.37
2019-04-30T06:18:42.311Z,13.57
2019-04-30T06:21:12.758Z,14.87
2019-04-30T06:23:41.999Z,14.57
2019-04-30T06:26:13.214Z,14.73
2019-04-30T06:28:42.439Z,14.07
2019-04-30T06:31:11.549Z,13.23
2019-04-30T06:33:40.695Z,13.77
2019-04-30T06:36:11.182Z,12.70
2019-04-30T06:38:40.424Z,12.20
2019-04-30T06:41:09.621Z,13.30
2019-04-30T06:43:39.044Z,12.53
2019-04-30T06:46:08.836Z,12.77
2019-04-30T06:48:41.829Z,12.53
2019-04-30T06:51:30.794Z,15.20
2019-04-30T06:54:00.115Z,12.10
2019-04-30T06:56:29.214Z,12.60
2019-04-30T06:58:59.061Z,12.13
2019-04-30T07:01:29.094Z,12.00
2019-04-30T07:04:00.724Z,12.00
2019-04-30T07:06:32.555Z,11.53
2019-04-30T07:09:17.217Z,10.60
2019-04-30T07:11:52.156Z,11.40
2019-04-30T07:14:21.341Z,10.50
2019-04-30T07:16:50.518Z,10.23
2019-04-30T07:19:31.936Z,10.47
2019-04-30T07:21:50.522Z,10.30
2019-04-30T07:24:21.047Z,9.93
2019-04-30T07:26:54.620Z,9.33
2019-04-30T07:29:21.282Z,10.03
2019-04-30T07:31:51.670Z,9.83
2019-04-30T07:34:21.069Z,9.27
2019-04-30T07:37:10.743Z,8.90
2019-04-30T07:39:29.262Z,8.50
2019-04-30T07:41:55.321Z,8.73
2019-04-30T07:44:33.666Z,9.20
2019-04-30T07:46:55.282Z,8.30
2019-04-30T07:49:24.480Z,8.00
2019-04-30T07:51:54.166Z,8.83
2019-04-30T07:54:23.742Z,7.97
2019-04-30T07:56:52.926Z,8.70
2019-04-30T07:59:22.037Z,8.50
2019-04-30T08:02:03.992Z,8.47
2019-04-30T08:04:40.871Z,8.20
2019-04-30T08:07:10.348Z,7.87
2019-04-30T08:09:42.280Z,7.47
2019-04-30T08:12:11.636Z,6.93
2019-04-30T08:14:41.549Z,7.37
2019-04-30T08:17:10.720Z,7.07
2019-04-30T08:19:41.121Z,7.00
2019-04-30T08:22:10.786Z,6.73
2019-04-30T08:24:39.944Z,7.17
2019-04-30T08:27:09.690Z,8.17
2019-04-30T08:29:39.555Z,6.77
2019-04-30T08:32:09.093Z,6.30
2019-04-30T08:34:39.353Z,5.87
2019-04-30T08:37:16.997Z,6.00
2019-04-30T08:39:39.791Z,5.70
2019-04-30T08:42:09.118Z,5.57
2019-04-30T08:44:39.640Z,5.27
2019-04-30T08:47:08.920Z,5.77
2019-04-30T08:49:40.293Z,5.20
2019-04-30T08:52:10.678Z,5.03
2019-04-30T08:54:39.727Z,5.00
2019-04-30T08:57:08.850Z,4.63
2019-04-30T08:59:39.462Z,5.40
2019-04-30T09:02:15.941Z,5.03
2019-04-30T09:04:53.249Z,4.80
2019-04-30T09:07:22.430Z,4.70
2019-04-30T09:09:51.549Z,4.97
2019-04-30T09:12:20.676Z,4.93
2019-04-30T09:14:49.758Z,5.33
2019-04-30T09:17:19.864Z,5.67
2019-04-30T09:19:49.389Z,4.73
2019-04-30T09:22:19.490Z,5.20
2019-04-30T09:24:49.712Z,4.57
2019-04-30T09:27:19.697Z,4.33
2019-04-30T09:29:49.753Z,4.47
2019-04-30T09:32:19.428Z,4.40
2019-04-30T09:34:49.024Z,5.30
2019-04-30T09:37:22.563Z,4.17
2019-04-30T09:40:16.138Z,4.77
2019-04-30T09:42:45.060Z,3.90
2019-04-30T09:45:20.200Z,4.20
2019-04-30T09:48:05.297Z,4.07
2019-04-30T09:54:13.343Z,3.80
2019-04-30T09:56:52.773Z,4.35
2019-04-30T09:59:25.357Z,3.60
2019-04-30T10:01:54.527Z,3.87
2019-04-30T10:04:24.156Z,4.23
2019-04-30T10:06:59.427Z,3.73
2019-04-30T10:09:29.367Z,4.30
2019-04-30T10:12:09.706Z,5.23
2019-04-30T10:14:42.857Z,5.22
2019-04-30T10:17:31.091Z,5.33
2019-04-30T10:20:39.545Z,5.17
2019-04-30T10:23:13.758Z,5.73
2019-04-30T10:26:07.438Z,5.07
2019-04-30T10:28:41.630Z,5.20
2019-04-30T10:31:10.889Z,6.07
2019-04-30T10:33:40.162Z,6.13
2019-04-30T10:36:14.310Z,6.33
2019-04-30T10:38:43.479Z,5.83
2019-04-30T10:41:12.951Z,5.63
2019-04-30T10:43:42.086Z,5.77
2019-04-30T10:46:19.945Z,6.13
2019-04-30T10:49:12.208Z,5.67
2019-04-30T10:51:41.567Z,4.57
2019-04-30T10:54:26.475Z,3.40
2019-04-30T10:57:25.547Z,3.57
2019-04-30T10:59:58.626Z,3.80
2019-04-30T11:02:38.700Z,3.10
2019-04-30T11:05:09.318Z,3.53
2019-04-30T11:07:43.887Z,4.33
2019-04-30T11:10:18.769Z,4.10
2019-04-30T11:12:49.270Z,5.27
2019-04-30T11:15:20.829Z,5.67
2019-04-30T11:17:53.042Z,5.70
2019-04-30T11:20:22.820Z,5.63
2019-04-30T11:22:54.858Z,7.13
2019-04-30T11:25:27.770Z,7.53
2019-04-30T11:28:02.390Z,6.93
2019-04-30T11:30:39.272Z,6.90
2019-04-30T11:33:26.279Z,7.07
2019-04-30T11:36:02.277Z,8.07
2019-04-30T11:38:29.861Z,8.30
2019-04-30T11:41:04.193Z,9.53
2019-04-30T11:43:39.425Z,7.77
2019-04-30T11:46:38.442Z,8.43
2019-04-30T11:49:09.649Z,7.33
2019-04-30T11:51:39.348Z,7.60
2019-04-30T11:54:10.836Z,8.83
2019-04-30T11:56:40.064Z,9.10
2019-04-30T11:59:09.386Z,10.23
2019-04-30T12:01:39.231Z,9.33
2019-04-30T12:04:09.372Z,9.20
2019-04-30T12:06:39.475Z,8.13
2019-04-30T12:09:38.606Z,8.53
2019-04-30T12:12:09.147Z,9.37
2019-04-30T12:14:49.439Z,9.03
2019-04-30T12:17:18.922Z,9.67
2019-04-30T12:19:48.871Z,9.70
2019-04-30T12:22:20.375Z,9.23
2019-04-30T12:25:01.980Z,9.60
2019-04-30T12:27:21.919Z,10.23
2019-04-30T12:29:53.426Z,12.27
2019-04-30T12:32:22.581Z,11.43
2019-04-30T12:34:51.733Z,11.93
2019-04-30T12:37:21.653Z,12.60
2019-04-30T12:39:51.450Z,13.87
2019-04-30T12:42:21.191Z,15.35
2019-04-30T12:44:50.424Z,14.77
2019-04-30T12:47:21.988Z,14.07
2019-04-30T12:50:13.696Z,14.67
2019-04-30T12:52:56.156Z,15.30
2019-04-30T12:55:35.636Z,13.03
2019-04-30T12:58:05.166Z,14.37
2019-04-30T13:00:34.485Z,14.37
2019-04-30T13:03:13.807Z,13.70
2019-04-30T13:05:45.788Z,13.33
2019-04-30T13:08:16.787Z,13.10
2019-04-30T13:10:46.953Z,13.73
2019-04-30T13:13:16.799Z,12.87
2019-04-30T13:15:46.551Z,13.30
2019-04-30T13:18:17.261Z,14.20
2019-04-30T13:20:46.473Z,13.90
2019-04-30T13:23:15.877Z,14.20
2019-04-30T13:25:51.352Z,14.53
2019-04-30T13:28:19.581Z,14.30
2019-04-30T13:30:49.477Z,13.80
2019-04-30T13:33:24.811Z,13.93
2019-04-30T13:35:53.963Z,14.03
2019-04-30T13:38:49.045Z,14.13
2019-04-30T13:41:38.515Z,13.63
2019-04-30T13:44:13.618Z,14.07
2019-04-30T13:46:46.710Z,14.13
2019-04-30T13:49:15.863Z,12.20
2019-04-30T13:51:45.058Z,13.07
2019-04-30T13:54:14.166Z,14.70
2019-04-30T13:56:43.335Z,12.57
2019-04-30T13:59:12.537Z,12.00
2019-04-30T14:01:41.810Z,13.00
2019-04-30T14:04:42.273Z,12.33
2019-04-30T14:07:40.914Z,12.00
2019-04-30T14:10:10.299Z,13.03
2019-04-30T14:12:44.593Z,12.43
2019-04-30T14:15:14.802Z,11.90
2019-04-30T14:17:44.091Z,12.00
2019-04-30T14:20:13.509Z,12.47
2019-04-30T14:22:42.763Z,11.87
2019-04-30T14:25:15.827Z,12.03
2019-04-30T14:27:52.204Z,11.47
2019-04-30T14:30:16.336Z,11.87
2019-04-30T14:32:45.515Z,12.50
2019-04-30T14:35:14.953Z,12.70
2019-04-30T14:37:44.239Z,11.60
2019-04-30T14:40:15.981Z,12.73
2019-04-30T14:43:01.913Z,10.73
2019-04-30T14:45:39.008Z,12.13
2019-04-30T14:48:24.655Z,11.60
2019-04-30T14:50:56.240Z,11.77
2019-04-30T14:53:44.857Z,11.17
2019-04-30T14:56:29.385Z,11.80
2019-04-30T14:59:30.417Z,10.87
2019-04-30T15:02:05.311Z,12.03
2019-04-30T15:04:36.253Z,12.23
2019-04-30T15:07:05.598Z,12.80
2019-04-30T15:09:35.186Z,12.03
2019-04-30T15:12:05.490Z,12.93
2019-04-30T15:14:35.206Z,11.37
2019-04-30T15:17:06.353Z,11.07
2019-04-30T15:19:36.917Z,12.37
2019-04-30T15:22:08.630Z,11.93
2019-04-30T15:24:39.308Z,11.57
2019-04-30T15:27:09.234Z,11.53
2019-04-30T15:29:39.325Z,11.90
2019-04-30T15:32:08.817Z,11.90
2019-04-30T15:34:58.777Z,12.20
2019-04-30T15:37:28.650Z,11.27
2019-04-30T15:39:59.091Z,12.43
2019-04-30T15:42:28.472Z,11.70
2019-04-30T15:44:59.610Z,11.53
2019-04-30T15:47:28.924Z,12.17
2019-04-30T15:49:59.598Z,11.47
2019-04-30T15:52:28.913Z,12.57
2019-04-30T15:54:59.232Z,12.10
2019-04-30T15:57:29.510Z,12.27
2019-04-30T15:59:58.950Z,12.87
2019-04-30T16:02:57.237Z,11.87
2019-04-30T16:05:31.597Z,11.33
2019-04-30T16:08:19.752Z,13.90
2019-04-30T16:11:10.675Z,12.87
2019-04-30T16:13:58.557Z,14.07
2019-04-30T16:16:31.851Z,12.37
2019-04-30T16:19:00.964Z,12.07
2019-04-30T16:21:30.176Z,12.30
2019-04-30T16:23:59.342Z,11.40
2019-04-30T16:26:29.074Z,12.20
2019-04-30T16:28:58.689Z,12.03
2019-04-30T16:31:29.167Z,13.07
2019-04-30T16:33:58.522Z,11.83
2019-04-30T16:36:29.218Z,10.53
2019-04-30T16:38:58.695Z,11.13
2019-04-30T16:41:31.856Z,11.20
2019-04-30T16:44:01.871Z,11.10
2019-04-30T16:46:31.218Z,11.17
2019-04-30T16:49:00.602Z,10.70
2019-04-30T16:51:30.968Z,11.70
2019-04-30T16:54:00.488Z,12.07
2019-04-30T16:56:31.729Z,11.20
2019-04-30T16:59:02.586Z,11.83
2019-04-30T17:01:39.095Z,10.20
2019-04-30T17:04:19.188Z,10.63
2019-04-30T17:07:11.956Z,10.77
2019-04-30T17:10:00.495Z,11.10
2019-04-30T17:12:41.274Z,10.90
2019-04-30T17:15:32.296Z,14.20
2019-04-30T17:18:03.128Z,12.53
2019-04-30T17:20:36.031Z,13.03
2019-04-30T17:23:09.491Z,11.63
2019-04-30T17:25:40.812Z,10.87
2019-04-30T17:28:11.803Z,13.90
2019-04-30T17:30:44.682Z,11.33
2019-04-30T17:33:13.958Z,11.73
2019-04-30T17:35:43.353Z,11.13
2019-04-30T17:38:12.590Z,11.70
2019-04-30T17:40:44.549Z,10.93
2019-04-30T17:43:17.116Z,10.77
2019-04-30T17:45:46.381Z,11.97
2019-04-30T17:48:37.026Z,12.07
2019-04-30T17:51:06.875Z,11.40
2019-04-30T17:53:38.915Z,11.70
2019-04-30T17:56:09.952Z,12.10
2019-04-30T17:58:46.539Z,11.27
2019-04-30T18:01:16.354Z,10.83
2019-04-30T18:03:48.706Z,11.43
2019-04-30T18:06:20.227Z,10.77
2019-04-30T18:08:53.424Z,10.97
2019-04-30T18:11:23.003Z,10.97
2019-04-30T18:13:53.402Z,12.57
2019-04-30T18:16:22.698Z,11.47
2019-04-30T18:19:13.085Z,12.17
2019-04-30T18:21:53.262Z,11.30
2019-04-30T18:24:39.759Z,11.53
2019-04-30T18:27:14.689Z,11.50
2019-04-30T18:29:43.990Z,11.80
2019-04-30T18:32:13.338Z,12.23
2019-04-30T18:34:44.277Z,12.20
2019-04-30T18:37:14.130Z,12.43
2019-04-30T18:39:48.871Z,12.53
2019-04-30T18:42:25.301Z,12.90
2019-04-30T18:44:55.236Z,13.10
2019-04-30T18:47:44.916Z,13.10
2019-04-30T18:50:20.108Z,12.97
2019-04-30T18:53:00.117Z,12.60
2019-04-30T18:55:33.747Z,12.07
2019-04-30T18:58:12.383Z,13.67
2019-04-30T19:00:45.987Z,11.87
2019-04-30T19:03:24.603Z,12.53
2019-04-30T19:06:03.235Z,13.47
2019-04-30T19:09:09.547Z,12.90
2019-04-30T19:12:50.326Z,12.37
2019-04-30T19:16:17.876Z,12.97
2019-04-30T19:19:00.935Z,13.07
2019-04-30T19:21:43.699Z,12.90
2019-04-30T19:24:30.241Z,12.60
2019-04-30T19:27:12.833Z,13.50
2019-04-30T19:30:24.507Z,13.90
2019-04-30T19:32:58.980Z,14.07
2019-04-30T19:35:31.251Z,13.70
2019-04-30T19:38:02.167Z,13.20
2019-04-30T19:41:02.803Z,13.07
2019-04-30T19:43:39.014Z,13.23
2019-04-30T19:46:12.243Z,14.53
2019-04-30T19:48:41.541Z,13.43
2019-04-30T19:51:14.967Z,12.97
2019-04-30T19:53:44.178Z,12.53
2019-04-30T19:56:14.278Z,12.63
2019-04-30T19:58:59.550Z,12.03
2019-04-30T20:01:19.723Z,13.43
2019-04-30T20:03:51.461Z,12.10
2019-04-30T20:06:28.718Z,12.97
2019-04-30T20:09:02.258Z,12.27
2019-04-30T20:11:33.825Z,12.07
2019-04-30T20:14:03.683Z,11.47
2019-04-30T20:16:35.814Z,12.57
2019-04-30T20:19:05.271Z,12.53
2019-04-30T20:21:48.068Z,12.57
2019-04-30T20:24:06.753Z,12.07
2019-04-30T20:26:44.874Z,12.80
2019-04-30T20:29:15.148Z,12.83
2019-04-30T20:31:50.095Z,13.47
2019-04-30T20:34:21.055Z,12.47
2019-04-30T20:36:54.206Z,12.73
2019-04-30T20:39:42.597Z,13.43
2019-04-30T20:42:11.802Z,12.60
2019-04-30T20:44:41.326Z,12.70
2019-04-30T20:47:10.499Z,13.20
2019-04-30T20:49:40.678Z,12.27
2019-04-30T20:52:12.774Z,12.47
2019-04-30T20:54:43.181Z,12.57
2019-04-30T20:57:14.269Z,13.23
2019-04-30T20:59:44.994Z,13.30
2019-04-30T21:02:20.476Z,12.53
2019-04-30T21:05:02.176Z,12.50
2019-04-30T21:07:30.033Z,12.57
2019-04-30T21:10:00.645Z,11.93
2019-04-30T21:12:30.633Z,12.80
2019-04-30T21:15:01.188Z,12.53
2019-04-30T21:17:31.815Z,13.17
2019-04-30T21:20:09.497Z,13.30
2019-04-30T21:22:41.155Z,12.53
2019-04-30T21:25:13.013Z,13.60
2019-04-30T21:27:45.390Z,12.13
2019-04-30T21:30:15.589Z,12.77
2019-04-30T21:33:05.097Z,13.03
2019-04-30T21:35:53.157Z,13.40
2019-04-30T21:38:23.294Z,13.07
2019-04-30T21:40:58.793Z,13.23
2019-04-30T21:43:32.408Z,13.03
2019-04-30T21:46:03.547Z,12.97
2019-04-30T21:48:40.896Z,12.57
2019-04-30T21:51:11.398Z,13.67
2019-04-30T21:53:41.819Z,12.63
2019-04-30T21:56:12.231Z,13.90
2019-04-30T21:58:44.867Z,13.00
2019-04-30T22:01:25.564Z,12.80
2019-04-30T22:03:54.865Z,14.63
2019-04-30T22:06:24.202Z,14.43
2019-04-30T22:08:53.546Z,14.50
2019-04-30T22:11:23.408Z,13.33
2019-04-30T22:13:52.612Z,14.50
2019-04-30T22:16:24.394Z,14.53
2019-04-30T22:18:54.851Z,14.83
2019-04-30T22:21:24.636Z,14.83
2019-04-30T22:23:53.834Z,14.07
2019-04-30T22:26:23.174Z,14.30
2019-04-30T22:28:52.402Z,15.33
2019-04-30T22:31:21.564Z,15.73
2019-04-30T22:33:51.241Z,15.37
2019-04-30T22:36:26.060Z,15.50
2019-04-30T22:39:14.755Z,14.37
2019-04-30T22:41:44.488Z,14.33
2019-04-30T22:44:14.727Z,14.50
2019-04-30T22:46:44.123Z,13.57
2019-04-30T22:49:13.301Z,13.87
2019-04-30T22:51:42.762Z,14.90
2019-04-30T22:54:16.030Z,15.07
2019-04-30T22:56:45.408Z,14.10
2019-04-30T22:59:28.845Z,14.30
2019-04-30T23:02:17.302Z,13.87
2019-04-30T23:04:47.552Z,14.80
2019-04-30T23:07:16.851Z,13.67
2019-04-30T23:09:46.291Z,14.13
2019-04-30T23:12:15.618Z,13.20
2019-04-30T23:14:44.832Z,14.43
2019-04-30T23:17:14.411Z,14.63
2019-04-30T23:19:49.362Z,14.33
2019-04-30T23:22:15.779Z,13.33
2019-04-30T23:24:46.104Z,15.10
2019-04-30T23:27:18.622Z,13.73
2019-04-30T23:29:48.704Z,14.23
2019-04-30T23:32:18.346Z,14.67
2019-04-30T23:34:51.171Z,14.57
2019-04-30T23:37:20.454Z,13.73
2019-04-30T23:39:50.595Z,14.67
2019-04-30T23:42:22.350Z,13.80
2019-04-30T23:44:51.703Z,14.03
2019-04-30T23:47:20.913Z,15.00
2019-04-30T23:49:54.478Z,15.63
2019-04-30T23:52:23.675Z,14.03
2019-04-30T23:54:52.989Z,14.57
2019-04-30T23:57:22.156Z,13.17
2019-04-30T23:59:51.526Z,14.23
